Pedhoulas Trader — C4JM2 — position and weather

sailwx.info

Track history (hours):
 
Tides and Currents Weather Stations Pressure Air Temp Water Temp Dewpoint Dewpoint Depression Visibility Wind Speed Wind Dir Waves Ship Positions

Pedhoulas Trader

Last reported at 2015-Mar-12 17:21 UTC. Time now 2015-Mar-30 12:54 UTC.
Position S 26°21' E 153°59'.
Warning: this ship's position is 17 days out of date.

Length 229 m; draft 14.2 m.

Type: Ship. MMSI: 210073000.

Date/timePositionNaut miles runAvg speedWind from/ knotsBaromVisibWave heightAir tempDewpointWater temp
2015-Mar-12 17:21S 26°21' E 153°59'8 9.5
2015-Mar-12 16:31S 26°29' E 153°59'10 9.9
2015-Mar-12 15:33S 26°38' E 153°59'2510.8
2015-Mar-12 13:13S 27°03' E 153°57'810.4
2015-Mar-12 12:27S 27°11' E 153°57'1210.0
2015-Mar-12 11:12S 27°23' E 153°56'16 9.8
2015-Mar-12 09:33S 27°40' E 153°56'10 9.9
2015-Mar-12 08:33S 27°50' E 153°56'14 9.8
2015-Mar-12 07:07S 28°04' E 153°55'5 9.6
2015-Mar-12 06:33S 28°09' E 153°55'282 8.8
2015-Mar-10 22:33S 32°41' E 152°29'9 9.1
2015-Mar-10 21:34S 32°47' E 152°20'9 9.0
2015-Mar-10 20:33S 32°52' E 152°12'9 8.8
2015-Mar-10 19:33S 32°56' E 152°03'8 7.4
2015-Mar-10 18:33S 32°57' E 151°54'7 6.8
2015-Mar-10 17:33S 32°55' E 151°46'1 0.6
2015-Mar-10 15:24S 32°53' E 151°46'0 0.0
2015-Mar-10 14:30S 32°53' E 151°46'0 0.1
2015-Mar-10 13:30S 32°53' E 151°46'0 0.0
2015-Mar-10 11:24S 32°53' E 151°46'0 0.0
2015-Mar-10 10:30S 32°53' E 151°46'0 0.0
2015-Mar-10 09:06S 32°53' E 151°46'0 0.0
2015-Mar-10 08:24S 32°53' E 151°46'0 0.0
2015-Mar-10 07:18S 32°53' E 151°46'0 0.0
2015-Mar-10 05:33S 32°53' E 151°46'0 0.0
2015-Mar-10 04:30S 32°53' E 151°46'0 0.0
2015-Mar-10 03:30S 32°53' E 151°46'0 0.0
2015-Mar-10 02:33S 32°53' E 151°46'0 0.0
2015-Mar-10 01:30S 32°53' E 151°46'0 0.0
2015-Mar-10 00:30S 32°53' E 151°46'0 0.3
2015-Mar-09 23:33S 32°54' E 151°46'6 6.2
2015-Mar-09 22:32S 32°58' E 151°51'6 6.3
2015-Mar-09 21:33S 33°03' E 151°56'9 9.1
2015-Mar-09 20:34S 33°08' E 152°05'9 9.2
2015-Mar-09 19:33S 33°12' E 152°15'8 8.3
2015-Mar-09 18:33S 33°12' E 152°25'4 4.1
2015-Mar-09 17:30S 33°11' E 152°30'1 1.4
2015-Mar-09 16:27S 33°11' E 152°31'5 1.6
2015-Mar-09 13:18S 33°07' E 152°35'1 1.6
2015-Mar-09 12:24S 33°06' E 152°36'2 1.7
2015-Mar-09 11:30S 33°05' E 152°38'7 1.5
2015-Mar-09 07:05S 33°02' E 152°45'5 8.6
2015-Mar-09 06:31S 33°04' E 152°39'8 8.3
2015-Mar-09 05:33S 33°05' E 152°30'2 1.9
2015-Mar-09 04:33S 33°05' E 152°32'2 1.8
2015-Mar-09 03:33S 33°05' E 152°34'2 1.7
2015-Mar-09 02:33S 33°06' E 152°36'4 3.3
2015-Mar-09 01:24S 33°08' E 152°40'17 1.2
2015-Mar-08 10:33S 33°02' E 152°59'1 1.1
2015-Mar-08 09:33S 33°01' E 153°01'1 1.1
2015-Mar-08 08:33S 33°01' E 153°02'1 1.4
2015-Mar-08 07:33S 33°01' E 153°04'1 1.4
2015-Mar-08 06:33S 33°01' E 153°05'12 0.5
2015-Mar-07 08:06S 32°52' E 152°56'711.1
2015-Mar-07 07:27S 32°57' E 152°50'1110.4
2015-Mar-07 06:25S 33°01' E 152°38'6 7.4
2015-Mar-07 05:33S 33°01' E 152°30'1211.8
2015-Mar-07 04:33S 32°59' E 152°44'29 0.6
2015-Mar-05 06:30S 32°36' E 153°04'9 8.6
2015-Mar-05 05:28S 32°32' E 152°54'6 6.9
2015-Mar-05 04:33S 32°32' E 152°47'3 3.4
2015-Mar-05 03:33S 32°35' E 152°50'3 3.0
2015-Mar-05 02:31S 32°38' E 152°51'3 2.7
2015-Mar-05 01:31S 32°40' E 152°52'3 2.8
2015-Mar-05 00:33S 32°43' E 152°53'3 2.8
2015-Mar-04 23:33S 32°46' E 152°54'3 3.0
2015-Mar-04 22:33S 32°49' E 152°55'1312.9
2015-Mar-04 21:33S 32°59' E 152°46'18 8.0
2015-Mar-04 19:21S 33°17' E 152°46'  
Track history (hours):
 
Tides and Currents Weather Stations Pressure Air Temp Water Temp Dewpoint Dewpoint Depression Visibility Wind Speed Wind Dir Waves Ship Positions

Pedhoulas Trader

Last reported at 2015-Mar-12 17:21 UTC. Time now 2015-Mar-30 12:54 UTC.
Position S 26°21' E 153°59'.
Warning: this ship's position is 17 days out of date.

Length 229 m; draft 14.2 m.

Type: Ship. MMSI: 210073000.

Date/timePositionNaut miles runAvg speedWind from/ knotsBaromVisibWave heightAir tempDewpointWater temp
2015-Mar-12 17:21S 26°21' E 153°59'8 9.5
2015-Mar-12 16:31S 26°29' E 153°59'10 9.9
2015-Mar-12 15:33S 26°38' E 153°59'2510.8
2015-Mar-12 13:13S 27°03' E 153°57'810.4
2015-Mar-12 12:27S 27°11' E 153°57'1210.0
2015-Mar-12 11:12S 27°23' E 153°56'16 9.8
2015-Mar-12 09:33S 27°40' E 153°56'10 9.9
2015-Mar-12 08:33S 27°50' E 153°56'14 9.8
2015-Mar-12 07:07S 28°04' E 153°55'5 9.6
2015-Mar-12 06:33S 28°09' E 153°55'282 8.8
2015-Mar-10 22:33S 32°41' E 152°29'9 9.1
2015-Mar-10 21:34S 32°47' E 152°20'9 9.0
2015-Mar-10 20:33S 32°52' E 152°12'9 8.8
2015-Mar-10 19:33S 32°56' E 152°03'8 7.4
2015-Mar-10 18:33S 32°57' E 151°54'7 6.8
2015-Mar-10 17:33S 32°55' E 151°46'1 0.6
2015-Mar-10 15:24S 32°53' E 151°46'0 0.0
2015-Mar-10 14:30S 32°53' E 151°46'0 0.1
2015-Mar-10 13:30S 32°53' E 151°46'0 0.0
2015-Mar-10 11:24S 32°53' E 151°46'0 0.0
2015-Mar-10 10:30S 32°53' E 151°46'0 0.0
2015-Mar-10 09:06S 32°53' E 151°46'0 0.0
2015-Mar-10 08:24S 32°53' E 151°46'0 0.0
2015-Mar-10 07:18S 32°53' E 151°46'0 0.0
2015-Mar-10 05:33S 32°53' E 151°46'0 0.0
2015-Mar-10 04:30S 32°53' E 151°46'0 0.0
2015-Mar-10 03:30S 32°53' E 151°46'0 0.0
2015-Mar-10 02:33S 32°53' E 151°46'0 0.0
2015-Mar-10 01:30S 32°53' E 151°46'0 0.0
2015-Mar-10 00:30S 32°53' E 151°46'0 0.3
2015-Mar-09 23:33S 32°54' E 151°46'6 6.2
2015-Mar-09 22:32S 32°58' E 151°51'6 6.3
2015-Mar-09 21:33S 33°03' E 151°56'9 9.1
2015-Mar-09 20:34S 33°08' E 152°05'9 9.2
2015-Mar-09 19:33S 33°12' E 152°15'8 8.3
2015-Mar-09 18:33S 33°12' E 152°25'4 4.1
2015-Mar-09 17:30S 33°11' E 152°30'1 1.4
2015-Mar-09 16:27S 33°11' E 152°31'5 1.6
2015-Mar-09 13:18S 33°07' E 152°35'1 1.6
2015-Mar-09 12:24S 33°06' E 152°36'2 1.7
2015-Mar-09 11:30S 33°05' E 152°38'7 1.5
2015-Mar-09 07:05S 33°02' E 152°45'5 8.6
2015-Mar-09 06:31S 33°04' E 152°39'8 8.3
2015-Mar-09 05:33S 33°05' E 152°30'2 1.9
2015-Mar-09 04:33S 33°05' E 152°32'2 1.8
2015-Mar-09 03:33S 33°05' E 152°34'2 1.7
2015-Mar-09 02:33S 33°06' E 152°36'4 3.3
2015-Mar-09 01:24S 33°08' E 152°40'17 1.2
2015-Mar-08 10:33S 33°02' E 152°59'1 1.1
2015-Mar-08 09:33S 33°01' E 153°01'1 1.1
2015-Mar-08 08:33S 33°01' E 153°02'1 1.4
2015-Mar-08 07:33S 33°01' E 153°04'1 1.4
2015-Mar-08 06:33S 33°01' E 153°05'12 0.5
2015-Mar-07 08:06S 32°52' E 152°56'711.1
2015-Mar-07 07:27S 32°57' E 152°50'1110.4
2015-Mar-07 06:25S 33°01' E 152°38'6 7.4
2015-Mar-07 05:33S 33°01' E 152°30'1211.8
2015-Mar-07 04:33S 32°59' E 152°44'29 0.6
2015-Mar-05 06:30S 32°36' E 153°04'9 8.6
2015-Mar-05 05:28S 32°32' E 152°54'6 6.9
2015-Mar-05 04:33S 32°32' E 152°47'3 3.4
2015-Mar-05 03:33S 32°35' E 152°50'3 3.0
2015-Mar-05 02:31S 32°38' E 152°51'3 2.7
2015-Mar-05 01:31S 32°40' E 152°52'3 2.8
2015-Mar-05 00:33S 32°43' E 152°53'3 2.8
2015-Mar-04 23:33S 32°46' E 152°54'3 3.0
2015-Mar-04 22:33S 32°49' E 152°55'1312.9
2015-Mar-04 21:33S 32°59' E 152°46'18 8.0
2015-Mar-04 19:21S 33°17' E 152°46'  

Dump ship's entire track history